sensor_id;sensor_type;location;lat;lon;timestamp;temperature;humidity
35258;DHT22;21385;50.878;8.050;2022-10-13T00:01:22;8.70;99.90
35258;DHT22;21385;50.878;8.050;2022-10-13T00:03:48;8.70;99.90
35258;DHT22;21385;50.878;8.050;2022-10-13T00:06:16;8.80;99.90
35258;DHT22;21385;50.878;8.050;2022-10-13T00:08:43;8.80;99.90
35258;DHT22;21385;50.878;8.050;2022-10-13T00:11:21;8.80;99.90
35258;DHT22;21385;50.878;8.050;2022-10-13T00:13:49;8.80;99.90
35258;DHT22;21385;50.878;8.050;2022-10-13T00:16:17;8.80;99.90
35258;DHT22;21385;50.878;8.050;2022-10-13T00:18:43;8.80;99.90
35258;DHT22;21385;50.878;8.050;2022-10-13T00:21:12;8.70;99.90
35258;DHT22;21385;50.878;8.050;2022-10-13T00:23:38;8.70;99.90
35258;DHT22;21385;50.878;8.050;2022-10-13T00:26:06;8.70;99.90
35258;DHT22;21385;50.878;8.050;2022-10-13T00:28:35;8.70;99.90
35258;DHT22;21385;50.878;8.050;2022-10-13T00:31:01;8.70;99.90
35258;DHT22;21385;50.878;8.050;2022-10-13T00:33:27;8.70;99.90
35258;DHT22;21385;50.878;8.050;2022-10-13T00:35:53;8.70;99.90
35258;DHT22;21385;50.878;8.050;2022-10-13T00:38:20;8.70;99.90
35258;DHT22;21385;50.878;8.050;2022-10-13T00:40:51;8.70;99.90
35258;DHT22;21385;50.878;8.050;2022-10-13T00:43:22;8.70;99.90
35258;DHT22;21385;50.878;8.050;2022-10-13T00:45:49;8.60;99.90
35258;DHT22;21385;50.878;8.050;2022-10-13T00:48:24;8.60;99.90
35258;DHT22;21385;50.878;8.050;2022-10-13T00:50:51;8.50;99.90
35258;DHT22;21385;50.878;8.050;2022-10-13T00:53:19;8.50;99.90
35258;DHT22;21385;50.878;8.050;2022-10-13T00:55:46;8.40;99.90
35258;DHT22;21385;50.878;8.050;2022-10-13T00:58:14;8.50;99.90
35258;DHT22;21385;50.878;8.050;2022-10-13T01:00:46;8.50;99.90
35258;DHT22;21385;50.878;8.050;2022-10-13T01:03:12;8.50;99.90
35258;DHT22;21385;50.878;8.050;2022-10-13T01:05:39;8.50;99.90
35258;DHT22;21385;50.878;8.050;2022-10-13T01:08:06;8.50;99.90
35258;DHT22;21385;50.878;8.050;2022-10-13T01:10:42;8.40;99.90
35258;DHT22;21385;50.878;8.050;2022-10-13T01:15:54;8.40;99.90
35258;DHT22;21385;50.878;8.050;2022-10-13T01:18:25;8.50;99.90
35258;DHT22;21385;50.878;8.050;2022-10-13T01:26:49;8.40;99.90
35258;DHT22;21385;50.878;8.050;2022-10-13T01:35:04;8.40;99.90
35258;DHT22;21385;50.878;8.050;2022-10-13T01:42:52;8.30;99.90
35258;DHT22;21385;50.878;8.050;2022-10-13T01:45:22;8.20;99.90
35258;DHT22;21385;50.878;8.050;2022-10-13T01:47:50;8.20;99.90
35258;DHT22;21385;50.878;8.050;2022-10-13T01:50:18;8.20;99.90
35258;DHT22;21385;50.878;8.050;2022-10-13T01:52:44;8.20;99.90
35258;DHT22;21385;50.878;8.050;2022-10-13T01:55:12;8.20;99.90
35258;DHT22;21385;50.878;8.050;2022-10-13T01:57:40;8.30;99.90
35258;DHT22;21385;50.878;8.050;2022-10-13T02:02:39;8.30;99.90
35258;DHT22;21385;50.878;8.050;2022-10-13T02:08:12;8.30;99.90
35258;DHT22;21385;50.878;8.050;2022-10-13T02:10:54;8.30;99.90
35258;DHT22;21385;50.878;8.050;2022-10-13T02:13:24;8.30;99.90
35258;DHT22;21385;50.878;8.050;2022-10-13T02:15:54;8.30;99.90
35258;DHT22;21385;50.878;8.050;2022-10-13T02:18:24;8.20;99.90
35258;DHT22;21385;50.878;8.050;2022-10-13T02:20:52;8.20;99.90
35258;DHT22;21385;50.878;8.050;2022-10-13T02:23:18;8.20;99.90
35258;DHT22;21385;50.878;8.050;2022-10-13T02:25:45;8.20;99.90
35258;DHT22;21385;50.878;8.050;2022-10-13T02:28:13;8.20;99.90
35258;DHT22;21385;50.878;8.050;2022-10-13T02:30:40;8.20;99.90
35258;DHT22;21385;50.878;8.050;2022-10-13T02:33:06;8.20;99.90
35258;DHT22;21385;50.878;8.050;2022-10-13T02:35:33;8.30;99.90
35258;DHT22;21385;50.878;8.050;2022-10-13T02:38:01;8.20;99.90
35258;DHT22;21385;50.878;8.050;2022-10-13T02:40:27;8.20;99.90
35258;DHT22;21385;50.878;8.050;2022-10-13T02:42:53;8.20;99.90
35258;DHT22;21385;50.878;8.050;2022-10-13T02:45:21;8.20;99.90
35258;DHT22;21385;50.878;8.050;2022-10-13T02:47:47;8.20;99.90
35258;DHT22;21385;50.878;8.050;2022-10-13T02:50:13;8.20;99.90
35258;DHT22;21385;50.878;8.050;2022-10-13T02:52:38;8.20;99.90
35258;DHT22;21385;50.878;8.050;2022-10-13T02:55:06;8.10;99.90
35258;DHT22;21385;50.878;8.050;2022-10-13T02:57:32;8.10;99.90
35258;DHT22;21385;50.878;8.050;2022-10-13T02:59:57;8.10;99.90
35258;DHT22;21385;50.878;8.050;2022-10-13T03:02:23;8.10;99.90
35258;DHT22;21385;50.878;8.050;2022-10-13T03:04:50;8.20;99.90
35258;DHT22;21385;50.878;8.050;2022-10-13T03:07:18;8.20;99.90
35258;DHT22;21385;50.878;8.050;2022-10-13T03:09:44;8.20;99.90
35258;DHT22;21385;50.878;8.050;2022-10-13T03:12:09;8.20;99.90
35258;DHT22;21385;50.878;8.050;2022-10-13T03:14:35;8.20;99.90
35258;DHT22;21385;50.878;8.050;2022-10-13T03:17:00;8.20;99.90
35258;DHT22;21385;50.878;8.050;2022-10-13T03:19:26;8.20;99.90
35258;DHT22;21385;50.878;8.050;2022-10-13T03:21:52;8.20;99.90
35258;DHT22;21385;50.878;8.050;2022-10-13T03:24:18;8.20;99.90
35258;DHT22;21385;50.878;8.050;2022-10-13T03:26:43;8.20;99.90
35258;DHT22;21385;50.878;8.050;2022-10-13T03:29:16;8.10;99.90
35258;DHT22;21385;50.878;8.050;2022-10-13T03:31:42;8.10;99.90
35258;DHT22;21385;50.878;8.050;2022-10-13T03:34:09;8.10;99.90
35258;DHT22;21385;50.878;8.050;2022-10-13T03:36:36;8.10;99.90
35258;DHT22;21385;50.878;8.050;2022-10-13T03:39:01;8.00;99.90
35258;DHT22;21385;50.878;8.050;2022-10-13T03:41:27;8.00;99.90
35258;DHT22;21385;50.878;8.050;2022-10-13T03:43:52;8.00;99.90
35258;DHT22;21385;50.878;8.050;2022-10-13T03:46:18;8.00;99.90
35258;DHT22;21385;50.878;8.050;2022-10-13T03:48:45;8.00;99.90
35258;DHT22;21385;50.878;8.050;2022-10-13T03:51:14;8.00;99.90
35258;DHT22;21385;50.878;8.050;2022-10-13T03:53:40;8.00;99.90
35258;DHT22;21385;50.878;8.050;2022-10-13T03:56:06;8.00;99.90
35258;DHT22;21385;50.878;8.050;2022-10-13T03:58:32;8.10;99.90
35258;DHT22;21385;50.878;8.050;2022-10-13T04:01:02;8.10;99.90
35258;DHT22;21385;50.878;8.050;2022-10-13T04:03:29;8.10;99.90
35258;DHT22;21385;50.878;8.050;2022-10-13T04:05:54;8.20;99.90
35258;DHT22;21385;50.878;8.050;2022-10-13T04:08:20;8.10;99.90
35258;DHT22;21385;50.878;8.050;2022-10-13T04:10:45;8.10;99.90
35258;DHT22;21385;50.878;8.050;2022-10-13T04:13:11;8.10;99.90
35258;DHT22;21385;50.878;8.050;2022-10-13T04:15:38;8.10;99.90
35258;DHT22;21385;50.878;8.050;2022-10-13T04:18:05;8.10;99.90
35258;DHT22;21385;50.878;8.050;2022-10-13T04:20:34;8.10;99.90
35258;DHT22;21385;50.878;8.050;2022-10-13T04:23:00;8.00;99.90
35258;DHT22;21385;50.878;8.050;2022-10-13T04:25:26;8.10;99.90
35258;DHT22;21385;50.878;8.050;2022-10-13T04:27:51;8.20;99.90
35258;DHT22;21385;50.878;8.050;2022-10-13T04:30:17;8.10;99.90
35258;DHT22;21385;50.878;8.050;2022-10-13T04:32:42;8.10;99.90
35258;DHT22;21385;50.878;8.050;2022-10-13T04:35:08;8.10;99.90
35258;DHT22;21385;50.878;8.050;2022-10-13T04:37:33;8.10;99.90
35258;DHT22;21385;50.878;8.050;2022-10-13T04:39:59;8.00;99.90
35258;DHT22;21385;50.878;8.050;2022-10-13T04:42:24;8.10;99.90
35258;DHT22;21385;50.878;8.050;2022-10-13T04:44:50;8.10;99.90
35258;DHT22;21385;50.878;8.050;2022-10-13T04:47:15;8.00;99.90
35258;DHT22;21385;50.878;8.050;2022-10-13T04:49:41;8.00;99.90
35258;DHT22;21385;50.878;8.050;2022-10-13T04:52:06;8.00;99.90
35258;DHT22;21385;50.878;8.050;2022-10-13T04:54:32;8.00;99.90
35258;DHT22;21385;50.878;8.050;2022-10-13T04:56:57;7.90;99.90
35258;DHT22;21385;50.878;8.050;2022-10-13T04:59:23;7.90;99.90
35258;DHT22;21385;50.878;8.050;2022-10-13T05:01:49;7.90;99.90
35258;DHT22;21385;50.878;8.050;2022-10-13T05:04:14;7.90;99.90
35258;DHT22;21385;50.878;8.050;2022-10-13T05:06:41;7.90;99.90
35258;DHT22;21385;50.878;8.050;2022-10-13T05:09:08;7.80;99.90
35258;DHT22;21385;50.878;8.050;2022-10-13T05:11:33;7.80;99.90
35258;DHT22;21385;50.878;8.050;2022-10-13T05:14:00;7.70;99.90
35258;DHT22;21385;50.878;8.050;2022-10-13T05:16:26;7.80;99.90
35258;DHT22;21385;50.878;8.050;2022-10-13T05:18:53;7.70;99.90
35258;DHT22;21385;50.878;8.050;2022-10-13T05:21:27;7.70;99.90
35258;DHT22;21385;50.878;8.050;2022-10-13T05:23:54;7.70;99.90
35258;DHT22;21385;50.878;8.050;2022-10-13T05:26:27;7.70;99.90
35258;DHT22;21385;50.878;8.050;2022-10-13T05:28:55;7.70;99.90
35258;DHT22;21385;50.878;8.050;2022-10-13T05:31:22;7.70;99.90
35258;DHT22;21385;50.878;8.050;2022-10-13T05:33:49;7.70;99.90
35258;DHT22;21385;50.878;8.050;2022-10-13T05:36:51;7.70;99.90
35258;DHT22;21385;50.878;8.050;2022-10-13T05:39:09;7.70;99.90
35258;DHT22;21385;50.878;8.050;2022-10-13T05:41:35;7.70;99.90
35258;DHT22;21385;50.878;8.050;2022-10-13T05:46:27;7.80;99.90
35258;DHT22;21385;50.878;8.050;2022-10-13T05:48:53;7.80;99.90
35258;DHT22;21385;50.878;8.050;2022-10-13T05:51:25;7.70;99.90
35258;DHT22;21385;50.878;8.050;2022-10-13T05:54:04;7.80;99.90
35258;DHT22;21385;50.878;8.050;2022-10-13T05:56:37;7.70;99.90
35258;DHT22;21385;50.878;8.050;2022-10-13T05:59:07;7.70;99.90
35258;DHT22;21385;50.878;8.050;2022-10-13T06:01:36;7.70;99.90
35258;DHT22;21385;50.878;8.050;2022-10-13T06:04:06;7.70;99.90
35258;DHT22;21385;50.878;8.050;2022-10-13T06:06:33;7.80;99.90
35258;DHT22;21385;50.878;8.050;2022-10-13T06:09:00;7.80;99.90
35258;DHT22;21385;50.878;8.050;2022-10-13T06:11:26;7.80;99.90
35258;DHT22;21385;50.878;8.050;2022-10-13T06:13:52;7.90;99.90
35258;DHT22;21385;50.878;8.050;2022-10-13T06:16:17;7.90;99.90
35258;DHT22;21385;50.878;8.050;2022-10-13T06:18:43;8.00;99.90
35258;DHT22;21385;50.878;8.050;2022-10-13T06:21:09;8.00;99.90
35258;DHT22;21385;50.878;8.050;2022-10-13T06:23:34;8.00;99.90
35258;DHT22;21385;50.878;8.050;2022-10-13T06:26:00;8.00;99.90
35258;DHT22;21385;50.878;8.050;2022-10-13T06:28:26;8.00;99.90
35258;DHT22;21385;50.878;8.050;2022-10-13T06:30:51;8.10;99.90
35258;DHT22;21385;50.878;8.050;2022-10-13T06:33:22;8.10;99.90
35258;DHT22;21385;50.878;8.050;2022-10-13T06:35:49;8.10;99.90
35258;DHT22;21385;50.878;8.050;2022-10-13T06:38:14;8.10;99.90
35258;DHT22;21385;50.878;8.050;2022-10-13T06:40:40;8.20;99.90
35258;DHT22;21385;50.878;8.050;2022-10-13T06:43:06;8.20;99.90
35258;DHT22;21385;50.878;8.050;2022-10-13T06:45:32;8.20;99.90
35258;DHT22;21385;50.878;8.050;2022-10-13T06:47:57;8.20;99.90
35258;DHT22;21385;50.878;8.050;2022-10-13T06:50:23;8.20;99.90
35258;DHT22;21385;50.878;8.050;2022-10-13T06:52:49;8.30;99.90
35258;DHT22;21385;50.878;8.050;2022-10-13T06:55:14;8.10;99.90
35258;DHT22;21385;50.878;8.050;2022-10-13T06:57:41;8.20;99.90
35258;DHT22;21385;50.878;8.050;2022-10-13T07:00:07;8.20;99.90
35258;DHT22;21385;50.878;8.050;2022-10-13T07:02:33;8.20;99.90
35258;DHT22;21385;50.878;8.050;2022-10-13T07:04:58;8.20;99.90
35258;DHT22;21385;50.878;8.050;2022-10-13T07:07:25;8.20;99.90
35258;DHT22;21385;50.878;8.050;2022-10-13T07:09:50;8.20;99.90
35258;DHT22;21385;50.878;8.050;2022-10-13T07:12:16;8.30;99.90
35258;DHT22;21385;50.878;8.050;2022-10-13T07:14:41;8.30;99.90
35258;DHT22;21385;50.878;8.050;2022-10-13T07:17:07;8.30;99.90
35258;DHT22;21385;50.878;8.050;2022-10-13T07:19:32;8.30;99.90
35258;DHT22;21385;50.878;8.050;2022-10-13T07:21:58;8.30;99.90
35258;DHT22;21385;50.878;8.050;2022-10-13T07:24:24;8.40;99.90
35258;DHT22;21385;50.878;8.050;2022-10-13T07:26:50;8.50;99.90
35258;DHT22;21385;50.878;8.050;2022-10-13T07:29:15;8.50;99.90
35258;DHT22;21385;50.878;8.050;2022-10-13T07:31:44;8.50;99.90
35258;DHT22;21385;50.878;8.050;2022-10-13T07:34:11;8.60;99.90
35258;DHT22;21385;50.878;8.050;2022-10-13T07:36:36;8.60;99.90
35258;DHT22;21385;50.878;8.050;2022-10-13T07:39:05;8.60;99.90
35258;DHT22;21385;50.878;8.050;2022-10-13T07:41:31;8.70;99.90
35258;DHT22;21385;50.878;8.050;2022-10-13T07:43:57;8.70;99.90
35258;DHT22;21385;50.878;8.050;2022-10-13T07:46:23;8.80;99.90
35258;DHT22;21385;50.878;8.050;2022-10-13T07:48:51;8.90;99.90
35258;DHT22;21385;50.878;8.050;2022-10-13T07:51:18;8.90;99.90
35258;DHT22;21385;50.878;8.050;2022-10-13T07:53:43;9.00;99.90
35258;DHT22;21385;50.878;8.050;2022-10-13T07:56:12;9.10;99.90
35258;DHT22;21385;50.878;8.050;2022-10-13T07:58:40;9.20;99.90
35258;DHT22;21385;50.878;8.050;2022-10-13T08:01:06;9.30;99.90
35258;DHT22;21385;50.878;8.050;2022-10-13T08:03:32;9.40;99.90
35258;DHT22;21385;50.878;8.050;2022-10-13T08:05:59;9.40;99.90
35258;DHT22;21385;50.878;8.050;2022-10-13T08:08:25;9.50;99.90
35258;DHT22;21385;50.878;8.050;2022-10-13T08:10:51;9.60;99.90
35258;DHT22;21385;50.878;8.050;2022-10-13T08:13:16;9.70;99.90
35258;DHT22;21385;50.878;8.050;2022-10-13T08:15:43;9.70;99.90
35258;DHT22;21385;50.878;8.050;2022-10-13T08:18:10;9.80;99.90
35258;DHT22;21385;50.878;8.050;2022-10-13T08:20:44;9.90;99.90
35258;DHT22;21385;50.878;8.050;2022-10-13T08:23:11;10.00;99.90
35258;DHT22;21385;50.878;8.050;2022-10-13T08:25:41;10.10;99.90
35258;DHT22;21385;50.878;8.050;2022-10-13T08:28:19;10.20;99.90
35258;DHT22;21385;50.878;8.050;2022-10-13T08:30:45;10.30;99.90
35258;DHT22;21385;50.878;8.050;2022-10-13T08:33:11;10.40;99.90
35258;DHT22;21385;50.878;8.050;2022-10-13T08:35:37;10.50;99.90
35258;DHT22;21385;50.878;8.050;2022-10-13T08:38:02;10.60;99.90
35258;DHT22;21385;50.878;8.050;2022-10-13T08:40:28;10.70;99.90
35258;DHT22;21385;50.878;8.050;2022-10-13T08:42:54;10.80;99.90
35258;DHT22;21385;50.878;8.050;2022-10-13T08:45:26;10.80;99.90
35258;DHT22;21385;50.878;8.050;2022-10-13T08:48:02;10.90;99.90
35258;DHT22;21385;50.878;8.050;2022-10-13T08:50:32;11.00;99.90
35258;DHT22;21385;50.878;8.050;2022-10-13T08:53:25;11.10;99.90
35258;DHT22;21385;50.878;8.050;2022-10-13T08:58:34;11.20;99.90
35258;DHT22;21385;50.878;8.050;2022-10-13T09:03:54;11.50;99.90
35258;DHT22;21385;50.878;8.050;2022-10-13T09:06:21;11.60;99.90
35258;DHT22;21385;50.878;8.050;2022-10-13T09:09:01;11.70;99.90
35258;DHT22;21385;50.878;8.050;2022-10-13T09:11:36;11.70;99.90
35258;DHT22;21385;50.878;8.050;2022-10-13T09:14:06;11.80;99.90
35258;DHT22;21385;50.878;8.050;2022-10-13T09:16:42;11.90;99.90
35258;DHT22;21385;50.878;8.050;2022-10-13T09:21:44;12.10;99.90
35258;DHT22;21385;50.878;8.050;2022-10-13T09:24:18;12.20;99.90
35258;DHT22;21385;50.878;8.050;2022-10-13T09:26:46;12.30;99.90
35258;DHT22;21385;50.878;8.050;2022-10-13T09:31:43;12.60;99.90
35258;DHT22;21385;50.878;8.050;2022-10-13T09:34:23;12.70;99.90
35258;DHT22;21385;50.878;8.050;2022-10-13T09:36:59;12.90;99.90
35258;DHT22;21385;50.878;8.050;2022-10-13T09:39:26;13.10;99.90
35258;DHT22;21385;50.878;8.050;2022-10-13T09:42:17;13.30;99.90
35258;DHT22;21385;50.878;8.050;2022-10-13T09:44:44;13.40;99.90
35258;DHT22;21385;50.878;8.050;2022-10-13T09:47:18;13.70;99.90
35258;DHT22;21385;50.878;8.050;2022-10-13T09:49:45;13.90;99.90
35258;DHT22;21385;50.878;8.050;2022-10-13T09:52:14;14.10;99.90
35258;DHT22;21385;50.878;8.050;2022-10-13T09:54:44;14.20;99.90
35258;DHT22;21385;50.878;8.050;2022-10-13T09:57:21;14.30;99.90
35258;DHT22;21385;50.878;8.050;2022-10-13T10:00:10;14.50;99.90
35258;DHT22;21385;50.878;8.050;2022-10-13T10:08:39;14.90;99.90
35258;DHT22;21385;50.878;8.050;2022-10-13T10:11:23;15.00;99.90
35258;DHT22;21385;50.878;8.050;2022-10-13T10:13:51;15.00;99.90
35258;DHT22;21385;50.878;8.050;2022-10-13T10:16:45;15.10;99.90
35258;DHT22;21385;50.878;8.050;2022-10-13T10:19:17;15.20;99.90
35258;DHT22;21385;50.878;8.050;2022-10-13T10:22:06;15.40;99.90
35258;DHT22;21385;50.878;8.050;2022-10-13T10:25:15;15.50;99.90
35258;DHT22;21385;50.878;8.050;2022-10-13T10:30:50;15.80;99.90
35258;DHT22;21385;50.878;8.050;2022-10-13T10:33:21;16.00;99.90
35258;DHT22;21385;50.878;8.050;2022-10-13T10:38:36;16.40;99.90
35258;DHT22;21385;50.878;8.050;2022-10-13T10:43:39;16.80;99.90
35258;DHT22;21385;50.878;8.050;2022-10-13T10:46:14;17.00;99.90
35258;DHT22;21385;50.878;8.050;2022-10-13T10:48:43;17.20;99.90
35258;DHT22;21385;50.878;8.050;2022-10-13T10:51:10;17.30;99.90
35258;DHT22;21385;50.878;8.050;2022-10-13T10:53:43;17.40;99.90
35258;DHT22;21385;50.878;8.050;2022-10-13T11:01:45;16.90;99.90
35258;DHT22;21385;50.878;8.050;2022-10-13T11:04:30;16.80;99.90
35258;DHT22;21385;50.878;8.050;2022-10-13T11:06:56;16.70;99.90
35258;DHT22;21385;50.878;8.050;2022-10-13T11:15:09;16.50;99.90
35258;DHT22;21385;50.878;8.050;2022-10-13T11:17:40;16.40;99.90
35258;DHT22;21385;50.878;8.050;2022-10-13T11:25:44;16.40;99.90
35258;DHT22;21385;50.878;8.050;2022-10-13T11:36:34;16.30;99.90
35258;DHT22;21385;50.878;8.050;2022-10-13T11:41:50;16.10;99.90
35258;DHT22;21385;50.878;8.050;2022-10-13T11:44:20;16.20;99.90
35258;DHT22;21385;50.878;8.050;2022-10-13T11:52:05;16.40;99.90
35258;DHT22;21385;50.878;8.050;2022-10-13T11:54:38;16.50;99.90
35258;DHT22;21385;50.878;8.050;2022-10-13T11:57:38;16.60;99.90
35258;DHT22;21385;50.878;8.050;2022-10-13T12:00:04;16.70;99.90
35258;DHT22;21385;50.878;8.050;2022-10-13T12:02:49;16.80;99.90
35258;DHT22;21385;50.878;8.050;2022-10-13T12:05:24;16.90;99.90
35258;DHT22;21385;50.878;8.050;2022-10-13T12:07:51;16.80;99.90
35258;DHT22;21385;50.878;8.050;2022-10-13T12:12:55;16.70;99.90
35258;DHT22;21385;50.878;8.050;2022-10-13T12:15:35;16.60;99.90
35258;DHT22;21385;50.878;8.050;2022-10-13T12:18:16;16.50;99.90
35258;DHT22;21385;50.878;8.050;2022-10-13T12:20:51;16.40;99.90
35258;DHT22;21385;50.878;8.050;2022-10-13T12:23:17;16.40;99.90
35258;DHT22;21385;50.878;8.050;2022-10-13T12:25:46;16.30;99.90
35258;DHT22;21385;50.878;8.050;2022-10-13T12:28:17;16.20;99.90
35258;DHT22;21385;50.878;8.050;2022-10-13T12:30:51;16.20;99.90
35258;DHT22;21385;50.878;8.050;2022-10-13T12:33:31;16.20;99.90
35258;DHT22;21385;50.878;8.050;2022-10-13T12:36:15;16.20;99.90
35258;DHT22;21385;50.878;8.050;2022-10-13T12:38:47;16.20;99.90
35258;DHT22;21385;50.878;8.050;2022-10-13T12:41:17;16.10;99.90
35258;DHT22;21385;50.878;8.050;2022-10-13T12:43:44;16.10;99.90
35258;DHT22;21385;50.878;8.050;2022-10-13T12:46:10;16.20;99.90
35258;DHT22;21385;50.878;8.050;2022-10-13T12:48:36;16.20;99.90
35258;DHT22;21385;50.878;8.050;2022-10-13T12:51:23;16.20;99.90
35258;DHT22;21385;50.878;8.050;2022-10-13T12:53:50;16.30;99.90
35258;DHT22;21385;50.878;8.050;2022-10-13T12:56:30;16.30;99.90
35258;DHT22;21385;50.878;8.050;2022-10-13T12:58:57;16.30;99.90
35258;DHT22;21385;50.878;8.050;2022-10-13T13:03:54;16.40;99.90
35258;DHT22;21385;50.878;8.050;2022-10-13T13:06:29;16.50;99.90
35258;DHT22;21385;50.878;8.050;2022-10-13T13:09:20;16.50;99.90
35258;DHT22;21385;50.878;8.050;2022-10-13T13:11:46;16.60;99.90
35258;DHT22;21385;50.878;8.050;2022-10-13T13:14:41;16.60;99.90
35258;DHT22;21385;50.878;8.050;2022-10-13T13:17:11;16.60;99.90
35258;DHT22;21385;50.878;8.050;2022-10-13T13:19:39;16.70;99.90
35258;DHT22;21385;50.878;8.050;2022-10-13T13:22:05;16.80;99.90
35258;DHT22;21385;50.878;8.050;2022-10-13T13:24:31;16.80;99.90
35258;DHT22;21385;50.878;8.050;2022-10-13T13:26:57;16.90;99.90
35258;DHT22;21385;50.878;8.050;2022-10-13T13:29:23;16.90;99.90
35258;DHT22;21385;50.878;8.050;2022-10-13T13:31:49;17.00;99.90
35258;DHT22;21385;50.878;8.050;2022-10-13T13:34:14;17.00;99.90
35258;DHT22;21385;50.878;8.050;2022-10-13T13:36:40;17.00;99.90
35258;DHT22;21385;50.878;8.050;2022-10-13T13:39:13;17.10;99.90
35258;DHT22;21385;50.878;8.050;2022-10-13T13:41:39;17.10;99.90
35258;DHT22;21385;50.878;8.050;2022-10-13T13:44:05;17.10;99.90
35258;DHT22;21385;50.878;8.050;2022-10-13T13:46:31;17.20;99.90
35258;DHT22;21385;50.878;8.050;2022-10-13T13:48:57;17.10;99.90
35258;DHT22;21385;50.878;8.050;2022-10-13T13:51:22;17.10;99.90
35258;DHT22;21385;50.878;8.050;2022-10-13T13:53:48;17.00;99.90
35258;DHT22;21385;50.878;8.050;2022-10-13T13:56:15;17.00;99.90
35258;DHT22;21385;50.878;8.050;2022-10-13T13:58:42;17.00;99.90
35258;DHT22;21385;50.878;8.050;2022-10-13T14:01:09;16.90;99.90
35258;DHT22;21385;50.878;8.050;2022-10-13T14:03:35;16.90;99.90
35258;DHT22;21385;50.878;8.050;2022-10-13T14:06:00;16.80;99.90
35258;DHT22;21385;50.878;8.050;2022-10-13T14:08:29;16.80;99.90
35258;DHT22;21385;50.878;8.050;2022-10-13T14:10:54;16.80;99.90
35258;DHT22;21385;50.878;8.050;2022-10-13T14:13:20;16.80;99.90
35258;DHT22;21385;50.878;8.050;2022-10-13T14:15:55;16.80;99.90
35258;DHT22;21385;50.878;8.050;2022-10-13T14:18:21;16.90;99.90
35258;DHT22;21385;50.878;8.050;2022-10-13T14:20:46;16.90;99.90
35258;DHT22;21385;50.878;8.050;2022-10-13T14:23:12;17.00;99.90
35258;DHT22;21385;50.878;8.050;2022-10-13T14:25:37;17.00;99.90
35258;DHT22;21385;50.878;8.050;2022-10-13T14:28:03;17.00;99.90
35258;DHT22;21385;50.878;8.050;2022-10-13T14:30:29;17.00;99.90
35258;DHT22;21385;50.878;8.050;2022-10-13T14:32:54;17.00;99.90
35258;DHT22;21385;50.878;8.050;2022-10-13T14:35:20;17.00;99.90
35258;DHT22;21385;50.878;8.050;2022-10-13T14:37:45;16.90;99.90
35258;DHT22;21385;50.878;8.050;2022-10-13T14:40:11;17.00;99.90
35258;DHT22;21385;50.878;8.050;2022-10-13T14:42:36;16.90;99.90
35258;DHT22;21385;50.878;8.050;2022-10-13T14:45:04;16.90;99.90
35258;DHT22;21385;50.878;8.050;2022-10-13T14:47:30;16.90;99.90
35258;DHT22;21385;50.878;8.050;2022-10-13T14:49:56;16.80;99.90
35258;DHT22;21385;50.878;8.050;2022-10-13T14:52:22;16.80;99.90
35258;DHT22;21385;50.878;8.050;2022-10-13T14:54:47;16.80;99.90
35258;DHT22;21385;50.878;8.050;2022-10-13T14:57:13;16.80;99.90
35258;DHT22;21385;50.878;8.050;2022-10-13T14:59:40;16.80;99.90
35258;DHT22;21385;50.878;8.050;2022-10-13T15:02:07;16.80;99.90
35258;DHT22;21385;50.878;8.050;2022-10-13T15:04:33;16.80;99.90
35258;DHT22;21385;50.878;8.050;2022-10-13T15:06:58;16.80;99.90
35258;DHT22;21385;50.878;8.050;2022-10-13T15:09:24;16.90;99.90
35258;DHT22;21385;50.878;8.050;2022-10-13T15:11:49;16.90;99.90
35258;DHT22;21385;50.878;8.050;2022-10-13T15:14:15;16.90;99.90
35258;DHT22;21385;50.878;8.050;2022-10-13T15:16:40;16.90;99.90
35258;DHT22;21385;50.878;8.050;2022-10-13T15:19:06;17.00;99.90
35258;DHT22;21385;50.878;8.050;2022-10-13T15:21:32;17.00;99.90
35258;DHT22;21385;50.878;8.050;2022-10-13T15:23:57;16.90;99.90
35258;DHT22;21385;50.878;8.050;2022-10-13T15:26:23;16.90;99.90
35258;DHT22;21385;50.878;8.050;2022-10-13T15:28:51;16.80;99.90
35258;DHT22;21385;50.878;8.050;2022-10-13T15:31:18;16.80;99.90
35258;DHT22;21385;50.878;8.050;2022-10-13T15:33:51;16.70;99.90
35258;DHT22;21385;50.878;8.050;2022-10-13T15:36:18;16.70;99.90
35258;DHT22;21385;50.878;8.050;2022-10-13T15:38:44;16.70;99.90
35258;DHT22;21385;50.878;8.050;2022-10-13T15:41:10;16.60;99.90
35258;DHT22;21385;50.878;8.050;2022-10-13T15:43:36;16.60;99.90
35258;DHT22;21385;50.878;8.050;2022-10-13T15:46:07;16.50;99.90
35258;DHT22;21385;50.878;8.050;2022-10-13T15:48:34;16.30;99.90
35258;DHT22;21385;50.878;8.050;2022-10-13T15:51:00;16.30;99.90
35258;DHT22;21385;50.878;8.050;2022-10-13T15:53:26;16.10;99.90
35258;DHT22;21385;50.878;8.050;2022-10-13T15:55:51;16.00;99.90
35258;DHT22;21385;50.878;8.050;2022-10-13T15:58:17;15.90;99.90
35258;DHT22;21385;50.878;8.050;2022-10-13T16:00:43;15.80;99.90
35258;DHT22;21385;50.878;8.050;2022-10-13T16:03:16;15.70;99.90
35258;DHT22;21385;50.878;8.050;2022-10-13T16:05:42;15.60;99.90
35258;DHT22;21385;50.878;8.050;2022-10-13T16:08:08;15.60;99.90
35258;DHT22;21385;50.878;8.050;2022-10-13T16:10:34;15.40;99.90
35258;DHT22;21385;50.878;8.050;2022-10-13T16:12:59;15.40;99.90
35258;DHT22;21385;50.878;8.050;2022-10-13T16:15:25;15.40;99.90
35258;DHT22;21385;50.878;8.050;2022-10-13T16:17:51;15.30;99.90
35258;DHT22;21385;50.878;8.050;2022-10-13T16:20:17;15.30;99.90
35258;DHT22;21385;50.878;8.050;2022-10-13T16:22:42;15.30;99.90
35258;DHT22;21385;50.878;8.050;2022-10-13T16:25:08;15.30;99.90
35258;DHT22;21385;50.878;8.050;2022-10-13T16:27:35;15.30;99.90
35258;DHT22;21385;50.878;8.050;2022-10-13T16:30:00;15.30;99.90
35258;DHT22;21385;50.878;8.050;2022-10-13T16:32:26;15.30;99.90
35258;DHT22;21385;50.878;8.050;2022-10-13T16:34:52;15.30;99.90
35258;DHT22;21385;50.878;8.050;2022-10-13T16:37:17;15.30;99.90
35258;DHT22;21385;50.878;8.050;2022-10-13T16:39:43;15.30;99.90
35258;DHT22;21385;50.878;8.050;2022-10-13T16:42:09;15.30;99.90
35258;DHT22;21385;50.878;8.050;2022-10-13T16:44:34;15.30;99.90
35258;DHT22;21385;50.878;8.050;2022-10-13T16:47:02;15.30;99.90
35258;DHT22;21385;50.878;8.050;2022-10-13T16:49:30;15.30;99.90
35258;DHT22;21385;50.878;8.050;2022-10-13T16:51:56;15.30;99.90
35258;DHT22;21385;50.878;8.050;2022-10-13T16:54:21;15.30;99.90
35258;DHT22;21385;50.878;8.050;2022-10-13T16:56:47;15.30;99.90
35258;DHT22;21385;50.878;8.050;2022-10-13T16:59:14;15.30;99.90
35258;DHT22;21385;50.878;8.050;2022-10-13T17:01:40;15.30;99.90
35258;DHT22;21385;50.878;8.050;2022-10-13T17:04:06;15.30;99.90
35258;DHT22;21385;50.878;8.050;2022-10-13T17:06:31;15.20;99.90
35258;DHT22;21385;50.878;8.050;2022-10-13T17:08:58;15.20;99.90
35258;DHT22;21385;50.878;8.050;2022-10-13T17:11:27;15.20;99.90
35258;DHT22;21385;50.878;8.050;2022-10-13T17:13:55;15.20;99.90
35258;DHT22;21385;50.878;8.050;2022-10-13T17:16:20;15.20;99.90